Time;durP1;ratioP1;P1;durP2;ratioP2;P2;SDS_P1;SDS_P2;PMS_P1;PMS_P2;Temp;Humidity;BMP_temperature;BMP_pressure;BME280_temperature;BME280_humidity;BME280_pressure;Samples;Min_cycle;Max_cycle;Signal;HPM_P1;HPM_P2
2023/10/26 00:00:03;;;;;;;6.10;3.53;;;;;;;;;;5022926;28;20374;-65
2023/10/26 00:02:29;;;;;;;3.97;3.10;;;;;;;;;;5009708;28;20026;-64
2023/10/26 00:04:55;;;;;;;4.40;3.13;;;;;;;;;;5030002;28;20547;-64
2023/10/26 00:07:21;;;;;;;5.53;3.20;;;;;;;;;;5015999;28;20029;-64
2023/10/26 00:09:47;;;;;;;4.97;3.47;;;;;;;;;;5022231;28;20090;-64
2023/10/26 00:12:13;;;;;;;5.22;3.53;;;;;;;;;;5016755;28;20034;-64
2023/10/26 00:14:39;;;;;;;3.90;2.85;;;;;;;;;;5022494;28;20030;-64
2023/10/26 00:17:06;;;;;;;5.57;3.30;;;;;;;;;;5016156;28;20033;-68
2023/10/26 00:19:32;;;;;;;3.92;2.78;;;;;;;;;;5021857;28;20879;-65
2023/10/26 00:21:59;;;;;;;2.95;2.35;;;;;;;;;;5021049;28;20029;-64
2023/10/26 00:24:25;;;;;;;4.35;2.63;;;;;;;;;;5019633;28;20115;-64
2023/10/26 00:26:51;;;;;;;3.08;2.50;;;;;;;;;;5026982;28;20095;-65
2023/10/26 00:29:17;;;;;;;3.90;3.00;;;;;;;;;;5018037;28;20112;-69
2023/10/26 00:31:43;;;;;;;4.13;3.00;;;;;;;;;;5015066;28;20037;-64
2023/10/26 00:34:09;;;;;;;3.78;2.25;;;;;;;;;;5018153;28;20088;-64
2023/10/26 00:36:35;;;;;;;3.03;2.28;;;;;;;;;;5016150;28;20091;-64
2023/10/26 00:39:02;;;;;;;2.63;2.22;;;;;;;;;;5022454;28;20075;-64
2023/10/26 00:41:28;;;;;;;5.18;2.20;;;;;;;;;;5016733;28;20962;-64
2023/10/26 00:43:54;;;;;;;2.40;2.00;;;;;;;;;;5017960;28;20033;-64
2023/10/26 00:46:21;;;;;;;2.75;2.13;;;;;;;;;;5017910;28;20477;-64
2023/10/26 00:48:47;;;;;;;2.33;2.00;;;;;;;;;;5015014;28;20029;-64
2023/10/26 00:51:13;;;;;;;2.20;2.00;;;;;;;;;;5022232;28;20033;-64
2023/10/26 00:53:41;;;;;;;3.80;2.13;;;;;;;;;;5024201;28;20026;-65
2023/10/26 00:56:07;;;;;;;2.35;2.15;;;;;;;;;;5021571;28;20087;-64
2023/10/26 00:58:34;;;;;;;2.15;1.90;;;;;;;;;;5015392;28;20034;-64
2023/10/26 01:01:00;;;;;;;9.15;3.67;;;;;;;;;;5015284;28;20033;-64
2023/10/26 01:03:28;;;;;;;4.72;2.85;;;;;;;;;;5033016;28;20072;-64
2023/10/26 01:05:54;;;;;;;3.80;3.05;;;;;;;;;;5015183;28;20061;-65
2023/10/26 01:08:20;;;;;;;4.43;2.60;;;;;;;;;;5026059;28;20043;-66
2023/10/26 01:10:47;;;;;;;3.88;3.20;;;;;;;;;;5019914;28;20281;-64
2023/10/26 01:13:13;;;;;;;5.03;1.80;;;;;;;;;;5022256;28;20041;-65
2023/10/26 01:15:39;;;;;;;2.92;1.90;;;;;;;;;;5018654;28;20083;-65
2023/10/26 01:18:06;;;;;;;2.15;1.95;;;;;;;;;;5017850;28;20057;-65
2023/10/26 01:20:32;;;;;;;2.25;1.90;;;;;;;;;;5015893;28;20029;-65
2023/10/26 01:22:58;;;;;;;1.65;1.55;;;;;;;;;;5014233;28;20026;-64
2023/10/26 01:25:25;;;;;;;1.83;1.67;;;;;;;;;;5021334;28;20555;-65
2023/10/26 01:27:51;;;;;;;2.30;1.83;;;;;;;;;;5026636;28;20748;-64
2023/10/26 01:30:17;;;;;;;1.92;1.80;;;;;;;;;;5023513;28;20437;-68
2023/10/26 01:32:43;;;;;;;1.60;1.50;;;;;;;;;;5025800;28;20473;-64
2023/10/26 01:35:10;;;;;;;2.10;1.90;;;;;;;;;;5020966;28;20033;-64
2023/10/26 01:37:38;;;;;;;1.60;1.50;;;;;;;;;;5027150;28;20466;-64
2023/10/26 01:40:04;;;;;;;2.08;1.80;;;;;;;;;;5026916;28;20021;-64
2023/10/26 01:42:30;;;;;;;2.38;2.17;;;;;;;;;;5034228;28;20481;-64
2023/10/26 01:44:56;;;;;;;1.80;1.67;;;;;;;;;;5022774;28;20022;-67
2023/10/26 01:47:22;;;;;;;2.40;1.83;;;;;;;;;;5038291;28;20021;-65
2023/10/26 01:49:48;;;;;;;1.75;1.65;;;;;;;;;;5024834;28;20018;-66
2023/10/26 01:52:15;;;;;;;1.73;1.63;;;;;;;;;;5021532;28;20025;-66
2023/10/26 01:54:41;;;;;;;1.80;1.70;;;;;;;;;;5014560;28;20579;-65
2023/10/26 01:57:08;;;;;;;2.05;1.80;;;;;;;;;;5025114;28;20022;-64
2023/10/26 01:59:35;;;;;;;2.35;1.70;;;;;;;;;;5016447;28;21157;-65
2023/10/26 02:02:01;;;;;;;1.90;1.60;;;;;;;;;;5023887;28;20200;-65
2023/10/26 02:04:28;;;;;;;3.03;1.70;;;;;;;;;;5023232;28;20220;-65
2023/10/26 02:06:54;;;;;;;2.00;1.80;;;;;;;;;;5040350;28;20033;-64
2023/10/26 02:09:21;;;;;;;2.10;1.90;;;;;;;;;;5036605;28;20133;-65
2023/10/26 02:11:47;;;;;;;1.63;1.52;;;;;;;;;;5020929;28;20397;-67
2023/10/26 02:14:13;;;;;;;1.60;1.50;;;;;;;;;;5022435;28;20027;-65
2023/10/26 02:16:39;;;;;;;1.70;1.60;;;;;;;;;;5027458;28;20029;-66
2023/10/26 02:19:06;;;;;;;2.50;1.70;;;;;;;;;;5015593;28;20026;-64
2023/10/26 02:21:32;;;;;;;2.33;1.70;;;;;;;;;;5027221;28;20048;-64
2023/10/26 02:23:58;;;;;;;1.70;1.60;;;;;;;;;;5020620;28;20470;-64
2023/10/26 02:26:24;;;;;;;1.77;1.63;;;;;;;;;;5024079;28;20091;-64
2023/10/26 02:28:50;;;;;;;1.63;1.52;;;;;;;;;;5022589;28;20092;-65
2023/10/26 02:31:16;;;;;;;1.70;1.60;;;;;;;;;;5025775;28;20029;-65
2023/10/26 02:33:43;;;;;;;2.35;1.50;;;;;;;;;;5029276;28;20082;-64
2023/10/26 02:36:09;;;;;;;1.50;1.40;;;;;;;;;;5019826;28;20524;-64
2023/10/26 02:38:35;;;;;;;1.20;1.20;;;;;;;;;;5021818;28;20029;-64
2023/10/26 02:41:04;;;;;;;1.17;1.13;;;;;;;;;;5022346;28;20393;-66
2023/10/26 02:43:31;;;;;;;1.50;1.40;;;;;;;;;;5020522;28;20979;-66
2023/10/26 02:46:06;;;;;;;1.27;1.27;;;;;;;;;;5020484;28;20026;-64
2023/10/26 02:48:33;;;;;;;1.40;1.35;;;;;;;;;;5017573;28;20582;-64
2023/10/26 02:51:00;;;;;;;1.50;1.40;;;;;;;;;;5016852;28;20045;-64
2023/10/26 02:53:26;;;;;;;2.38;1.40;;;;;;;;;;5019202;28;20026;-64
2023/10/26 02:55:52;;;;;;;1.40;1.30;;;;;;;;;;5019297;28;20029;-64
2023/10/26 02:58:18;;;;;;;1.60;1.50;;;;;;;;;;5022798;28;20477;-64
2023/10/26 03:00:44;;;;;;;1.67;1.42;;;;;;;;;;5019458;28;20087;-64
2023/10/26 03:03:10;;;;;;;2.42;1.38;;;;;;;;;;5022243;28;20034;-68
2023/10/26 03:05:38;;;;;;;1.45;1.35;;;;;;;;;;5020591;28;20030;-65
2023/10/26 03:08:04;;;;;;;1.42;1.33;;;;;;;;;;5021821;28;20501;-65
2023/10/26 03:10:30;;;;;;;2.25;1.40;;;;;;;;;;5015558;28;20346;-64
2023/10/26 03:12:57;;;;;;;4.38;1.60;;;;;;;;;;5020296;28;20056;-64
2023/10/26 03:15:23;;;;;;;1.70;1.60;;;;;;;;;;5021860;28;20030;-65
2023/10/26 03:17:49;;;;;;;1.70;1.60;;;;;;;;;;5024500;28;20063;-64
2023/10/26 03:20:16;;;;;;;1.27;1.23;;;;;;;;;;5029379;28;20668;-64
2023/10/26 03:22:42;;;;;;;2.78;1.48;;;;;;;;;;5019647;28;20367;-64
2023/10/26 03:25:13;;;;;;;1.60;1.50;;;;;;;;;;5022006;28;20436;-64
2023/10/26 03:27:39;;;;;;;2.25;1.80;;;;;;;;;;5022808;28;20056;-64
2023/10/26 03:30:07;;;;;;;1.70;1.60;;;;;;;;;;5020031;28;20021;-65
2023/10/26 03:32:33;;;;;;;1.60;1.50;;;;;;;;;;5023265;28;20397;-66
2023/10/26 03:35:00;;;;;;;2.97;1.60;;;;;;;;;;5032202;28;20025;-64
2023/10/26 03:37:27;;;;;;;1.70;1.60;;;;;;;;;;5022782;28;20482;-64
2023/10/26 03:39:53;;;;;;;1.80;1.70;;;;;;;;;;5022784;28;20173;-64
2023/10/26 03:42:19;;;;;;;2.05;1.80;;;;;;;;;;5022438;28;20026;-65
2023/10/26 03:44:45;;;;;;;1.83;1.63;;;;;;;;;;5018385;28;20060;-64
2023/10/26 03:47:12;;;;;;;3.35;1.67;;;;;;;;;;5019358;28;20029;-64
2023/10/26 03:49:38;;;;;;;2.63;1.73;;;;;;;;;;5028611;28;20062;-69
2023/10/26 03:52:05;;;;;;;3.35;1.70;;;;;;;;;;5025707;28;20508;-66
2023/10/26 03:54:31;;;;;;;5.22;1.70;;;;;;;;;;5024408;28;20036;-64
2023/10/26 03:57:00;;;;;;;1.73;1.63;;;;;;;;;;5025350;28;20134;-64
2023/10/26 03:59:26;;;;;;;1.73;1.63;;;;;;;;;;5025540;28;20032;-64
2023/10/26 04:01:52;;;;;;;1.75;1.55;;;;;;;;;;5018810;28;20565;-65
2023/10/26 04:04:18;;;;;;;3.53;1.80;;;;;;;;;;5019139;28;20033;-64
2023/10/26 04:06:45;;;;;;;1.70;1.60;;;;;;;;;;5021734;28;20385;-64
2023/10/26 04:09:13;;;;;;;1.73;1.60;;;;;;;;;;5020269;28;20030;-64
2023/10/26 04:11:42;;;;;;;1.50;1.40;;;;;;;;;;5018683;28;20408;-64
2023/10/26 04:14:08;;;;;;;2.42;1.60;;;;;;;;;;5018736;28;20029;-64
2023/10/26 04:16:34;;;;;;;2.00;1.80;;;;;;;;;;5024230;28;20496;-64
2023/10/26 04:19:00;;;;;;;2.65;1.90;;;;;;;;;;5020981;28;20414;-64
2023/10/26 04:21:26;;;;;;;1.70;1.60;;;;;;;;;;5020483;28;20053;-64
2023/10/26 04:23:52;;;;;;;1.83;1.60;;;;;;;;;;5023111;28;20449;-64
2023/10/26 04:26:18;;;;;;;2.70;1.85;;;;;;;;;;5020690;28;20033;-64
2023/10/26 04:28:45;;;;;;;2.03;1.80;;;;;;;;;;5035965;28;20046;-65
2023/10/26 04:31:11;;;;;;;1.92;1.70;;;;;;;;;;5022921;28;20487;-65
2023/10/26 04:33:37;;;;;;;2.97;1.88;;;;;;;;;;5019955;28;20026;-64
2023/10/26 04:36:04;;;;;;;6.32;2.78;;;;;;;;;;5012235;28;20034;-64
2023/10/26 04:38:31;;;;;;;3.45;1.90;;;;;;;;;;5022280;28;20389;-64
2023/10/26 04:40:59;;;;;;;2.65;2.05;;;;;;;;;;5022174;28;20475;-64
2023/10/26 04:43:25;;;;;;;2.10;1.90;;;;;;;;;;5021761;28;20021;-64
2023/10/26 04:45:51;;;;;;;2.63;2.00;;;;;;;;;;5021953;28;20041;-68
2023/10/26 04:48:17;;;;;;;2.10;1.90;;;;;;;;;;5022012;28;20030;-64
2023/10/26 04:50:43;;;;;;;2.13;1.92;;;;;;;;;;5021680;28;20048;-64
2023/10/26 04:53:10;;;;;;;3.72;2.65;;;;;;;;;;5025990;28;20025;-64
2023/10/26 04:55:36;;;;;;;5.53;2.67;;;;;;;;;;5023679;28;20489;-64
2023/10/26 04:58:03;;;;;;;4.25;2.70;;;;;;;;;;5021919;28;20037;-64
2023/10/26 05:00:30;;;;;;;3.63;2.88;;;;;;;;;;5032600;28;20075;-64
2023/10/26 05:02:56;;;;;;;3.42;2.45;;;;;;;;;;5024058;28;20473;-64
2023/10/26 05:05:22;;;;;;;2.85;2.53;;;;;;;;;;5031168;28;20025;-65
2023/10/26 05:07:48;;;;;;;3.05;2.53;;;;;;;;;;5033788;28;20045;-64
2023/10/26 05:10:15;;;;;;;2.97;2.40;;;;;;;;;;5018286;28;20112;-64
2023/10/26 05:12:41;;;;;;;3.72;2.58;;;;;;;;;;5024003;28;20602;-64
2023/10/26 05:15:08;;;;;;;2.50;2.30;;;;;;;;;;5027075;28;20390;-64
2023/10/26 05:17:36;;;;;;;3.63;2.75;;;;;;;;;;5023388;28;20024;-65
2023/10/26 05:20:03;;;;;;;4.65;2.20;;;;;;;;;;5025048;28;20432;-64
2023/10/26 05:22:29;;;;;;;4.03;2.50;;;;;;;;;;5022066;28;20473;-64
2023/10/26 05:24:55;;;;;;;4.47;2.35;;;;;;;;;;5018686;28;21100;-64
2023/10/26 05:27:21;;;;;;;3.22;2.50;;;;;;;;;;5025359;28;20140;-64
2023/10/26 05:29:47;;;;;;;2.55;2.17;;;;;;;;;;5022608;28;20475;-64
2023/10/26 05:32:13;;;;;;;4.28;2.35;;;;;;;;;;5018266;28;20036;-65
2023/10/26 05:34:39;;;;;;;4.03;2.08;;;;;;;;;;5020307;28;20103;-65
2023/10/26 05:37:06;;;;;;;4.35;2.38;;;;;;;;;;5022068;28;20038;-66
2023/10/26 05:39:38;;;;;;;4.00;1.92;;;;;;;;;;5024994;28;20029;-67
2023/10/26 05:42:04;;;;;;;3.45;2.45;;;;;;;;;;5021249;28;20479;-65
2023/10/26 05:44:31;;;;;;;2.60;1.90;;;;;;;;;;5021660;28;20025;-65
2023/10/26 05:46:59;;;;;;;5.75;2.33;;;;;;;;;;5028983;28;20461;-65
2023/10/26 05:49:26;;;;;;;3.53;1.98;;;;;;;;;;5013101;28;20485;-67
2023/10/26 05:51:52;;;;;;;5.45;1.90;;;;;;;;;;5014713;28;20392;-65
2023/10/26 05:54:18;;;;;;;4.10;2.15;;;;;;;;;;5022381;28;20546;-65
2023/10/26 05:56:45;;;;;;;3.22;2.92;;;;;;;;;;5021237;28;20021;-65
2023/10/26 05:59:11;;;;;;;4.38;2.38;;;;;;;;;;5024471;28;20527;-64
2023/10/26 06:01:37;;;;;;;3.65;2.00;;;;;;;;;;5020531;28;20029;-64
2023/10/26 06:04:03;;;;;;;7.00;3.72;;;;;;;;;;5017302;28;20037;-64
2023/10/26 06:06:29;;;;;;;7.60;4.13;;;;;;;;;;5020371;28;20044;-65
2023/10/26 06:08:56;;;;;;;7.88;3.70;;;;;;;;;;5023831;28;20087;-65
2023/10/26 06:11:22;;;;;;;5.35;3.17;;;;;;;;;;5032626;28;20568;-64
2023/10/26 06:13:48;;;;;;;4.50;2.80;;;;;;;;;;5023480;28;20268;-64
2023/10/26 06:16:16;;;;;;;4.00;3.35;;;;;;;;;;5019271;28;20887;-65
2023/10/26 06:18:42;;;;;;;4.15;3.50;;;;;;;;;;5020130;28;20389;-65
2023/10/26 06:21:09;;;;;;;4.65;3.22;;;;;;;;;;5028749;28;20045;-64
2023/10/26 06:23:35;;;;;;;4.28;2.90;;;;;;;;;;5023805;28;20034;-65
2023/10/26 06:26:02;;;;;;;5.75;2.60;;;;;;;;;;5020936;28;20037;-64
2023/10/26 06:28:29;;;;;;;5.88;3.20;;;;;;;;;;5024913;28;20430;-65
2023/10/26 06:30:55;;;;;;;7.05;3.63;;;;;;;;;;5020086;28;20044;-65
2023/10/26 06:33:22;;;;;;;6.45;3.00;;;;;;;;;;5020831;28;20037;-65
2023/10/26 06:35:49;;;;;;;5.03;3.30;;;;;;;;;;5020713;28;20063;-64
2023/10/26 06:38:15;;;;;;;7.50;3.25;;;;;;;;;;5022030;28;20611;-64
2023/10/26 06:40:44;;;;;;;5.15;3.08;;;;;;;;;;5027761;28;20210;-64
2023/10/26 06:43:10;;;;;;;4.78;2.72;;;;;;;;;;5019234;28;20076;-65
2023/10/26 06:45:36;;;;;;;5.13;2.95;;;;;;;;;;5017948;28;20057;-64
2023/10/26 06:48:03;;;;;;;3.78;2.65;;;;;;;;;;5020958;28;20040;-64
2023/10/26 06:50:29;;;;;;;4.30;2.33;;;;;;;;;;5021123;28;20367;-65
2023/10/26 06:52:55;;;;;;;5.38;2.50;;;;;;;;;;5019238;28;20036;-64
2023/10/26 06:55:21;;;;;;;6.43;3.08;;;;;;;;;;5024129;28;20033;-65
2023/10/26 06:57:47;;;;;;;4.78;3.15;;;;;;;;;;5016156;28;20474;-64
2023/10/26 07:00:13;;;;;;;6.60;3.13;;;;;;;;;;5019074;28;20080;-64
2023/10/26 07:02:40;;;;;;;8.75;3.40;;;;;;;;;;5021478;28;20291;-65
2023/10/26 07:05:06;;;;;;;6.07;2.90;;;;;;;;;;5020242;28;20033;-66
2023/10/26 07:07:36;;;;;;;6.72;3.35;;;;;;;;;;5021932;28;20034;-67
2023/10/26 07:10:02;;;;;;;13.95;6.20;;;;;;;;;;5023381;28;20176;-64
2023/10/26 07:12:30;;;;;;;21.45;7.82;;;;;;;;;;5019677;28;20025;-65
2023/10/26 07:14:59;;;;;;;29.55;9.50;;;;;;;;;;5028780;28;20020;-69
2023/10/26 07:17:25;;;;;;;24.08;8.40;;;;;;;;;;5025824;28;20535;-64
2023/10/26 07:19:51;;;;;;;10.00;4.72;;;;;;;;;;5025176;28;20036;-68
2023/10/26 07:22:17;;;;;;;6.45;4.20;;;;;;;;;;5020978;28;20033;-67
2023/10/26 07:24:44;;;;;;;7.90;3.22;;;;;;;;;;5025645;28;20502;-65
2023/10/26 07:27:10;;;;;;;5.10;3.15;;;;;;;;;;5020525;28;20493;-65
2023/10/26 07:29:36;;;;;;;7.95;3.17;;;;;;;;;;5020014;28;20038;-65
2023/10/26 07:32:02;;;;;;;6.53;3.97;;;;;;;;;;5020655;28;20557;-65
2023/10/26 07:34:28;;;;;;;8.38;4.10;;;;;;;;;;5024233;28;20049;-64
2023/10/26 07:36:55;;;;;;;7.82;4.45;;;;;;;;;;5020092;28;20049;-65
2023/10/26 07:39:21;;;;;;;7.75;3.70;;;;;;;;;;5024010;28;20033;-65
2023/10/26 07:41:47;;;;;;;7.05;3.67;;;;;;;;;;5020778;28;20030;-64
2023/10/26 07:44:13;;;;;;;8.88;4.10;;;;;;;;;;5013526;28;20270;-67
2023/10/26 07:46:39;;;;;;;6.20;3.55;;;;;;;;;;5019202;28;20030;-65
2023/10/26 07:49:05;;;;;;;4.90;2.67;;;;;;;;;;5025905;28;20033;-64
2023/10/26 07:51:31;;;;;;;5.82;2.60;;;;;;;;;;5017859;28;20037;-64
2023/10/26 07:53:57;;;;;;;6.07;3.58;;;;;;;;;;5018762;28;20135;-64
2023/10/26 07:56:24;;;;;;;5.95;3.10;;;;;;;;;;5019957;28;20021;-65
2023/10/26 07:58:50;;;;;;;5.82;3.03;;;;;;;;;;5016995;28;20040;-64
2023/10/26 08:01:16;;;;;;;3.85;2.78;;;;;;;;;;5017553;28;20409;-65
2023/10/26 08:03:42;;;;;;;4.15;2.78;;;;;;;;;;5015702;28;20033;-64
2023/10/26 08:06:09;;;;;;;5.30;2.92;;;;;;;;;;5020362;28;20155;-64
2023/10/26 08:08:35;;;;;;;6.13;3.17;;;;;;;;;;5012994;28;20056;-65
2023/10/26 08:11:14;;;;;;;6.07;2.90;;;;;;;;;;5016364;28;20477;-64
2023/10/26 08:13:41;;;;;;;4.85;2.95;;;;;;;;;;5020026;28;20366;-64
2023/10/26 08:16:07;;;;;;;5.78;2.90;;;;;;;;;;5019079;28;20017;-65
2023/10/26 08:18:33;;;;;;;6.65;3.33;;;;;;;;;;5017294;28;20037;-65
2023/10/26 08:21:02;;;;;;;5.78;3.30;;;;;;;;;;5020219;28;20390;-64
2023/10/26 08:23:29;;;;;;;5.50;2.85;;;;;;;;;;5019910;28;20030;-64
2023/10/26 08:25:56;;;;;;;3.95;2.72;;;;;;;;;;5017549;28;20044;-65
2023/10/26 08:28:22;;;;;;;5.05;3.10;;;;;;;;;;5031606;28;20049;-64
2023/10/26 08:30:48;;;;;;;8.13;3.08;;;;;;;;;;5011512;28;20501;-65
2023/10/26 08:33:15;;;;;;;9.00;3.90;;;;;;;;;;5018688;28;20029;-64
2023/10/26 08:35:48;;;;;;;8.13;3.42;;;;;;;;;;5021250;28;20037;-64
2023/10/26 08:38:15;;;;;;;6.78;2.70;;;;;;;;;;5020423;28;20025;-65
2023/10/26 08:40:48;;;;;;;8.02;3.65;;;;;;;;;;5014742;28;20121;-64
2023/10/26 08:43:15;;;;;;;5.25;2.78;;;;;;;;;;5015446;28;20032;-64
2023/10/26 08:45:41;;;;;;;4.28;3.08;;;;;;;;;;5021324;28;20120;-65
2023/10/26 08:48:08;;;;;;;4.40;2.95;;;;;;;;;;5012380;28;20030;-64
2023/10/26 08:50:34;;;;;;;6.13;3.30;;;;;;;;;;5009661;28;20169;-65
2023/10/26 08:53:00;;;;;;;4.93;2.90;;;;;;;;;;5018995;28;20090;-65
2023/10/26 08:55:26;;;;;;;5.78;3.15;;;;;;;;;;5014704;28;20537;-64
2023/10/26 08:58:00;;;;;;;4.38;3.30;;;;;;;;;;5035608;28;20029;-65
2023/10/26 09:00:30;;;;;;;6.40;3.75;;;;;;;;;;5014376;28;20036;-65
2023/10/26 09:02:56;;;;;;;6.38;2.85;;;;;;;;;;5014294;28;20473;-65
2023/10/26 09:05:22;;;;;;;7.38;3.72;;;;;;;;;;5015292;28;20576;-65
2023/10/26 09:07:48;;;;;;;6.03;4.07;;;;;;;;;;5019823;28;20470;-65
2023/10/26 09:10:36;;;;;;;8.57;4.22;;;;;;;;;;5022883;28;20029;-65
2023/10/26 09:13:03;;;;;;;8.00;4.03;;;;;;;;;;5024049;28;20789;-65
2023/10/26 09:15:30;;;;;;;5.97;3.60;;;;;;;;;;5012971;28;20459;-68
2023/10/26 09:18:00;;;;;;;5.85;3.33;;;;;;;;;;5021947;28;20060;-65
2023/10/26 09:20:27;;;;;;;8.30;3.58;;;;;;;;;;5018852;28;20367;-65
2023/10/26 09:22:53;;;;;;;6.88;3.92;;;;;;;;;;5021595;28;20033;-65
2023/10/26 09:25:20;;;;;;;7.35;3.90;;;;;;;;;;5022571;28;20025;-64
2023/10/26 09:27:46;;;;;;;6.68;3.67;;;;;;;;;;5018030;28;20045;-66
2023/10/26 09:30:23;;;;;;;7.35;3.92;;;;;;;;;;5019393;28;20025;-65
2023/10/26 09:32:50;;;;;;;16.60;6.28;;;;;;;;;;5004624;28;20049;-66
2023/10/26 09:35:29;;;;;;;18.25;6.40;;;;;;;;;;5005941;28;20029;-65
2023/10/26 09:37:55;;;;;;;9.70;4.18;;;;;;;;;;5005357;28;20484;-66
2023/10/26 09:40:22;;;;;;;7.10;3.72;;;;;;;;;;5018105;28;20029;-66
2023/10/26 09:42:48;;;;;;;7.40;4.63;;;;;;;;;;5020030;28;20030;-65
2023/10/26 09:45:15;;;;;;;7.15;4.50;;;;;;;;;;5013812;28;20522;-65
2023/10/26 09:47:41;;;;;;;9.57;4.90;;;;;;;;;;5013920;28;20433;-65
2023/10/26 09:50:08;;;;;;;9.57;5.10;;;;;;;;;;5020456;28;20096;-65
2023/10/26 09:52:34;;;;;;;8.35;4.20;;;;;;;;;;5025832;28;20029;-66
2023/10/26 09:55:00;;;;;;;11.85;4.57;;;;;;;;;;5016945;28;20091;-66
2023/10/26 09:57:34;;;;;;;6.32;3.15;;;;;;;;;;5025610;28;20503;-65
2023/10/26 10:00:01;;;;;;;8.57;3.65;;;;;;;;;;5025409;28;20040;-65
2023/10/26 10:02:27;;;;;;;7.30;3.58;;;;;;;;;;5013559;28;20040;-66
2023/10/26 10:04:54;;;;;;;4.20;3.50;;;;;;;;;;5036740;28;20033;-65
2023/10/26 10:07:39;;;;;;;10.43;3.38;;;;;;;;;;5024481;28;20416;-66
2023/10/26 10:10:09;;;;;;;6.60;3.00;;;;;;;;;;5020459;28;20497;-65
2023/10/26 10:12:36;;;;;;;5.30;2.95;;;;;;;;;;5018598;28;20033;-66
2023/10/26 10:15:09;;;;;;;6.85;3.53;;;;;;;;;;5024003;28;20084;-66
2023/10/26 10:17:45;;;;;;;6.00;3.05;;;;;;;;;;5025331;28;20021;-65
2023/10/26 10:20:16;;;;;;;5.55;2.90;;;;;;;;;;5039728;28;20044;-66
2023/10/26 10:22:45;;;;;;;6.05;2.33;;;;;;;;;;5032876;28;20037;-65
2023/10/26 10:25:12;;;;;;;7.18;2.33;;;;;;;;;;5019113;28;20034;-66
2023/10/26 10:28:01;;;;;;;9.13;2.85;;;;;;;;;;5025376;28;20053;-65
2023/10/26 10:30:31;;;;;;;10.13;3.10;;;;;;;;;;5016486;28;20037;-65
2023/10/26 10:32:57;;;;;;;5.05;2.42;;;;;;;;;;5023193;28;20508;-65
2023/10/26 10:35:29;;;;;;;6.93;2.38;;;;;;;;;;5011614;28;20787;-66
2023/10/26 10:38:15;;;;;;;8.23;2.38;;;;;;;;;;5022160;28;20401;-65
2023/10/26 10:40:42;;;;;;;6.28;2.45;;;;;;;;;;5021615;28;20243;-65
2023/10/26 10:43:08;;;;;;;5.15;2.25;;;;;;;;;;5017986;28;20108;-65
2023/10/26 10:45:34;;;;;;;5.57;2.05;;;;;;;;;;5015476;28;20128;-66
2023/10/26 10:48:05;;;;;;;5.25;2.17;;;;;;;;;;5018165;28;20053;-65
2023/10/26 10:50:31;;;;;;;2.17;1.50;;;;;;;;;;5019635;28;20038;-65
2023/10/26 10:52:57;;;;;;;1.60;1.50;;;;;;;;;;5021791;28;20405;-65
2023/10/26 10:55:30;;;;;;;2.65;2.15;;;;;;;;;;5023822;28;20031;-65
2023/10/26 10:57:57;;;;;;;1.77;1.40;;;;;;;;;;5022613;28;20430;-66
2023/10/26 11:00:24;;;;;;;5.05;1.70;;;;;;;;;;5022832;28;20273;-66
2023/10/26 11:02:56;;;;;;;3.38;1.98;;;;;;;;;;5022525;28;20057;-66
2023/10/26 11:05:22;;;;;;;4.43;1.67;;;;;;;;;;5022172;28;20067;-66
2023/10/26 11:07:52;;;;;;;4.18;1.65;;;;;;;;;;5020219;28;20082;-66
2023/10/26 11:10:18;;;;;;;4.28;1.70;;;;;;;;;;5024292;28;20028;-66
2023/10/26 11:12:51;;;;;;;7.13;1.90;;;;;;;;;;5019627;28;20109;-66
2023/10/26 11:15:17;;;;;;;5.13;1.70;;;;;;;;;;5026160;28;20450;-65
2023/10/26 11:17:43;;;;;;;5.55;2.05;;;;;;;;;;5025096;28;20501;-66
2023/10/26 11:20:28;;;;;;;6.60;1.90;;;;;;;;;;5025020;28;20632;-66
2023/10/26 11:22:56;;;;;;;2.35;1.70;;;;;;;;;;5017081;28;20053;-66
2023/10/26 11:25:26;;;;;;;4.25;1.98;;;;;;;;;;5023719;28;20106;-66
2023/10/26 11:27:52;;;;;;;4.60;2.38;;;;;;;;;;5024234;28;20502;-66
2023/10/26 11:30:18;;;;;;;5.65;1.98;;;;;;;;;;5021090;28;20037;-66
2023/10/26 11:32:44;;;;;;;3.95;1.80;;;;;;;;;;5024699;28;20120;-66
2023/10/26 11:35:13;;;;;;;4.28;1.73;;;;;;;;;;5017096;28;20078;-66
2023/10/26 11:37:46;;;;;;;5.43;1.70;;;;;;;;;;5018718;28;20604;-66
2023/10/26 11:40:14;;;;;;;8.38;2.35;;;;;;;;;;5015041;28;20559;-66
2023/10/26 11:42:44;;;;;;;7.40;1.92;;;;;;;;;;5018168;28;20038;-66
2023/10/26 11:45:11;;;;;;;2.38;1.70;;;;;;;;;;5022632;28;20028;-66
2023/10/26 11:47:45;;;;;;;3.55;1.98;;;;;;;;;;5015292;28;20036;-66
2023/10/26 11:50:40;;;;;;;2.25;1.50;;;;;;;;;;5018754;28;20068;-66
2023/10/26 11:53:11;;;;;;;7.43;1.92;;;;;;;;;;5006086;28;20049;-66
2023/10/26 11:55:37;;;;;;;4.43;1.85;;;;;;;;;;5022433;28;20029;-66
2023/10/26 11:58:03;;;;;;;2.83;1.48;;;;;;;;;;5018990;28;20097;-65
2023/10/26 12:00:30;;;;;;;2.40;1.67;;;;;;;;;;5036339;28;20279;-66
2023/10/26 12:02:57;;;;;;;3.40;1.80;;;;;;;;;;5015227;28;20032;-66
2023/10/26 12:05:24;;;;;;;2.17;1.58;;;;;;;;;;5021951;28;20033;-65
2023/10/26 12:07:50;;;;;;;1.63;1.52;;;;;;;;;;5021457;28;20028;-66
2023/10/26 12:10:17;;;;;;;2.35;1.48;;;;;;;;;;5019908;28;20029;-66
2023/10/26 12:12:44;;;;;;;1.90;1.80;;;;;;;;;;5025212;28;20071;-65
2023/10/26 12:15:10;;;;;;;3.92;1.75;;;;;;;;;;5018755;28;20434;-66
2023/10/26 12:17:37;;;;;;;1.48;1.40;;;;;;;;;;5018187;28;20022;-66
2023/10/26 12:20:03;;;;;;;2.15;1.70;;;;;;;;;;5020048;28;20060;-67
2023/10/26 12:22:29;;;;;;;1.50;1.40;;;;;;;;;;5015558;28;20591;-68
2023/10/26 12:24:56;;;;;;;3.03;1.63;;;;;;;;;;5001408;28;20500;-65
2023/10/26 12:27:22;;;;;;;2.83;1.70;;;;;;;;;;5011708;28;20105;-65
2023/10/26 12:29:48;;;;;;;1.42;1.33;;;;;;;;;;5027121;28;20030;-65
2023/10/26 12:32:15;;;;;;;2.25;1.50;;;;;;;;;;5011206;28;20112;-65
2023/10/26 12:34:42;;;;;;;2.55;1.50;;;;;;;;;;5013739;28;20033;-69
2023/10/26 12:37:08;;;;;;;1.92;1.45;;;;;;;;;;5010954;28;20390;-66
2023/10/26 12:39:34;;;;;;;3.35;2.65;;;;;;;;;;5015327;28;20107;-66
2023/10/26 12:42:00;;;;;;;2.17;1.50;;;;;;;;;;5013334;28;20032;-65
2023/10/26 12:44:27;;;;;;;4.40;1.95;;;;;;;;;;5012795;28;20155;-67
2023/10/26 12:46:53;;;;;;;3.55;2.08;;;;;;;;;;5025602;28;20041;-68
2023/10/26 12:49:21;;;;;;;2.25;1.67;;;;;;;;;;5030627;28;20454;-70
2023/10/26 12:51:47;;;;;;;2.58;1.50;;;;;;;;;;5012285;28;20091;-66
2023/10/26 12:54:14;;;;;;;2.55;1.50;;;;;;;;;;5015641;28;20026;-67
2023/10/26 12:56:40;;;;;;;5.25;1.70;;;;;;;;;;5011353;28;20022;-68
2023/10/26 12:59:06;;;;;;;2.53;1.55;;;;;;;;;;5012453;28;20116;-66
2023/10/26 13:01:32;;;;;;;1.65;1.52;;;;;;;;;;5007053;28;20440;-64
2023/10/26 13:03:58;;;;;;;2.70;1.45;;;;;;;;;;5010985;28;20029;-65
2023/10/26 13:06:24;;;;;;;2.45;1.55;;;;;;;;;;5029509;28;20481;-67
2023/10/26 13:08:51;;;;;;;2.00;1.50;;;;;;;;;;5015176;28;20034;-68
2023/10/26 13:11:17;;;;;;;3.60;1.70;;;;;;;;;;5011086;28;20108;-64
2023/10/26 13:13:43;;;;;;;4.38;1.60;;;;;;;;;;5012735;28;20033;-64
2023/10/26 13:16:10;;;;;;;3.35;2.25;;;;;;;;;;5011488;28;20034;-65
2023/10/26 13:18:36;;;;;;;5.25;2.17;;;;;;;;;;5013179;28;20370;-64
2023/10/26 13:21:03;;;;;;;5.95;2.22;;;;;;;;;;5016792;28;20033;-65
2023/10/26 13:23:29;;;;;;;5.22;2.40;;;;;;;;;;5018376;28;20040;-64
2023/10/26 13:25:56;;;;;;;3.70;1.92;;;;;;;;;;5017757;28;20559;-65
2023/10/26 13:28:22;;;;;;;3.85;1.70;;;;;;;;;;5013266;28;20753;-63
2023/10/26 13:30:48;;;;;;;3.40;1.67;;;;;;;;;;5017409;28;20384;-63
2023/10/26 13:33:15;;;;;;;3.90;2.03;;;;;;;;;;5016459;28;20358;-63
2023/10/26 13:35:41;;;;;;;2.90;1.52;;;;;;;;;;5016476;28;20033;-63
2023/10/26 13:38:12;;;;;;;9.77;2.83;;;;;;;;;;5016150;28;20579;-64
2023/10/26 13:40:38;;;;;;;5.10;3.35;;;;;;;;;;5017497;28;20107;-64
2023/10/26 13:43:04;;;;;;;4.55;2.67;;;;;;;;;;5012262;28;20099;-64
2023/10/26 13:45:34;;;;;;;4.93;2.13;;;;;;;;;;5017505;28;20034;-64
2023/10/26 13:48:00;;;;;;;4.20;2.22;;;;;;;;;;5017638;28;20033;-64
2023/10/26 13:50:28;;;;;;;2.95;2.03;;;;;;;;;;5032810;28;20025;-65
2023/10/26 13:52:57;;;;;;;4.10;2.17;;;;;;;;;;5015500;28;20776;-64
2023/10/26 13:55:24;;;;;;;2.72;1.77;;;;;;;;;;5019057;28;20034;-64
2023/10/26 13:57:50;;;;;;;3.78;1.95;;;;;;;;;;5017596;28;20557;-65
2023/10/26 14:00:17;;;;;;;4.70;1.73;;;;;;;;;;5017603;28;20075;-63
2023/10/26 14:02:43;;;;;;;3.42;1.50;;;;;;;;;;5018791;28;20829;-65
2023/10/26 14:05:10;;;;;;;2.47;1.42;;;;;;;;;;5013599;28;20083;-65
2023/10/26 14:07:36;;;;;;;5.95;1.77;;;;;;;;;;5013604;28;20583;-64
2023/10/26 14:10:04;;;;;;;2.10;1.65;;;;;;;;;;5009640;28;20501;-65
2023/10/26 14:12:31;;;;;;;4.38;2.35;;;;;;;;;;5012717;28;21054;-64
2023/10/26 14:14:58;;;;;;;2.22;1.60;;;;;;;;;;5017026;28;20555;-65
2023/10/26 14:17:24;;;;;;;4.97;2.08;;;;;;;;;;5015536;28;20116;-66
2023/10/26 14:19:50;;;;;;;5.95;2.22;;;;;;;;;;5014827;28;20025;-68
2023/10/26 14:22:16;;;;;;;3.17;1.80;;;;;;;;;;5014630;28;20025;-68
2023/10/26 14:24:43;;;;;;;3.75;1.80;;;;;;;;;;5020580;28;20037;-68
2023/10/26 14:27:09;;;;;;;2.88;1.63;;;;;;;;;;5015275;28;20272;-68
2023/10/26 14:29:35;;;;;;;3.65;1.80;;;;;;;;;;5015814;28;20515;-67
2023/10/26 14:32:01;;;;;;;3.90;2.17;;;;;;;;;;5014175;28;20434;-70
2023/10/26 14:34:27;;;;;;;4.32;2.00;;;;;;;;;;5011558;28;20136;-66
2023/10/26 14:36:53;;;;;;;5.80;2.20;;;;;;;;;;5014117;28;20061;-66
2023/10/26 14:39:20;;;;;;;5.22;2.13;;;;;;;;;;5011752;28;20442;-66
2023/10/26 14:41:46;;;;;;;6.20;2.10;;;;;;;;;;5016759;28;21180;-66